sensor_id;sensor_type;location;lat;lon;timestamp;temperature;humidity
13310;DHT22;6723;48.256;16.402;2022-07-24T00:02:09;25.70;82.70
13310;DHT22;6723;48.256;16.402;2022-07-24T00:04:35;25.70;82.60
13310;DHT22;6723;48.256;16.402;2022-07-24T00:07:01;25.70;82.80
13310;DHT22;6723;48.256;16.402;2022-07-24T00:09:27;25.70;83.00
13310;DHT22;6723;48.256;16.402;2022-07-24T00:11:53;25.70;83.10
13310;DHT22;6723;48.256;16.402;2022-07-24T00:14:19;25.70;83.20
13310;DHT22;6723;48.256;16.402;2022-07-24T00:16:44;25.60;83.40
13310;DHT22;6723;48.256;16.402;2022-07-24T00:19:10;25.60;83.50
13310;DHT22;6723;48.256;16.402;2022-07-24T00:21:36;25.50;83.50
13310;DHT22;6723;48.256;16.402;2022-07-24T00:24:02;25.50;83.70
13310;DHT22;6723;48.256;16.402;2022-07-24T00:26:27;25.50;84.40
13310;DHT22;6723;48.256;16.402;2022-07-24T00:28:53;25.40;84.50
13310;DHT22;6723;48.256;16.402;2022-07-24T00:31:19;25.40;84.80
13310;DHT22;6723;48.256;16.402;2022-07-24T00:33:45;25.40;85.30
13310;DHT22;6723;48.256;16.402;2022-07-24T00:36:11;25.40;85.40
13310;DHT22;6723;48.256;16.402;2022-07-24T00:38:37;25.40;85.70
13310;DHT22;6723;48.256;16.402;2022-07-24T00:41:03;25.40;86.10
13310;DHT22;6723;48.256;16.402;2022-07-24T00:43:29;25.30;86.00
13310;DHT22;6723;48.256;16.402;2022-07-24T00:45:55;25.30;86.70
13310;DHT22;6723;48.256;16.402;2022-07-24T00:48:20;25.20;86.80
13310;DHT22;6723;48.256;16.402;2022-07-24T00:50:46;25.10;87.30
13310;DHT22;6723;48.256;16.402;2022-07-24T00:53:14;25.10;87.70
13310;DHT22;6723;48.256;16.402;2022-07-24T00:55:41;25.10;88.20
13310;DHT22;6723;48.256;16.402;2022-07-24T00:58:08;25.00;88.60
13310;DHT22;6723;48.256;16.402;2022-07-24T01:00:34;25.00;89.00
13310;DHT22;6723;48.256;16.402;2022-07-24T01:03:00;25.00;89.60
13310;DHT22;6723;48.256;16.402;2022-07-24T01:05:26;25.00;90.00
13310;DHT22;6723;48.256;16.402;2022-07-24T01:07:51;25.00;90.30
13310;DHT22;6723;48.256;16.402;2022-07-24T01:10:17;25.00;90.30
13310;DHT22;6723;48.256;16.402;2022-07-24T01:12:43;25.00;90.60
13310;DHT22;6723;48.256;16.402;2022-07-24T01:15:10;24.90;90.80
13310;DHT22;6723;48.256;16.402;2022-07-24T01:17:39;24.90;90.90
13310;DHT22;6723;48.256;16.402;2022-07-24T01:20:06;24.90;91.10
13310;DHT22;6723;48.256;16.402;2022-07-24T01:22:33;24.90;91.30
13310;DHT22;6723;48.256;16.402;2022-07-24T01:24:59;24.90;91.60
13310;DHT22;6723;48.256;16.402;2022-07-24T01:27:25;24.90;91.80
13310;DHT22;6723;48.256;16.402;2022-07-24T01:29:51;24.80;92.10
13310;DHT22;6723;48.256;16.402;2022-07-24T01:32:17;24.80;92.40
13310;DHT22;6723;48.256;16.402;2022-07-24T01:34:44;24.80;92.70
13310;DHT22;6723;48.256;16.402;2022-07-24T01:37:10;24.70;93.00
13310;DHT22;6723;48.256;16.402;2022-07-24T01:39:36;24.70;93.30
13310;DHT22;6723;48.256;16.402;2022-07-24T01:42:02;24.70;93.80
13310;DHT22;6723;48.256;16.402;2022-07-24T01:44:28;24.70;93.80
13310;DHT22;6723;48.256;16.402;2022-07-24T01:46:54;24.60;94.20
13310;DHT22;6723;48.256;16.402;2022-07-24T01:49:19;24.60;94.70
13310;DHT22;6723;48.256;16.402;2022-07-24T01:51:45;24.50;95.00
13310;DHT22;6723;48.256;16.402;2022-07-24T01:54:11;24.60;95.30
13310;DHT22;6723;48.256;16.402;2022-07-24T01:56:37;24.50;95.80
13310;DHT22;6723;48.256;16.402;2022-07-24T01:59:03;24.40;96.10
13310;DHT22;6723;48.256;16.402;2022-07-24T02:01:29;24.40;96.70
13310;DHT22;6723;48.256;16.402;2022-07-24T02:03:55;24.40;97.20
13310;DHT22;6723;48.256;16.402;2022-07-24T02:06:22;24.20;97.70
13310;DHT22;6723;48.256;16.402;2022-07-24T02:08:48;24.20;98.20
13310;DHT22;6723;48.256;16.402;2022-07-24T02:11:13;24.20;98.70
13310;DHT22;6723;48.256;16.402;2022-07-24T02:13:39;24.20;99.10
13310;DHT22;6723;48.256;16.402;2022-07-24T02:16:05;24.20;99.50
13310;DHT22;6723;48.256;16.402;2022-07-24T02:18:31;24.10;99.90
13310;DHT22;6723;48.256;16.402;2022-07-24T02:20:57;24.10;99.90
13310;DHT22;6723;48.256;16.402;2022-07-24T02:23:23;24.10;99.90
13310;DHT22;6723;48.256;16.402;2022-07-24T02:25:49;24.00;99.90
13310;DHT22;6723;48.256;16.402;2022-07-24T02:28:17;24.00;99.90
13310;DHT22;6723;48.256;16.402;2022-07-24T02:30:44;24.00;99.90
13310;DHT22;6723;48.256;16.402;2022-07-24T02:33:11;23.90;99.90
13310;DHT22;6723;48.256;16.402;2022-07-24T02:35:38;23.90;99.90
13310;DHT22;6723;48.256;16.402;2022-07-24T02:38:04;23.90;99.90
13310;DHT22;6723;48.256;16.402;2022-07-24T02:40:31;23.90;99.90
13310;DHT22;6723;48.256;16.402;2022-07-24T02:42:57;23.80;99.90
13310;DHT22;6723;48.256;16.402;2022-07-24T02:45:23;23.70;99.90
13310;DHT22;6723;48.256;16.402;2022-07-24T02:47:52;23.80;99.90
13310;DHT22;6723;48.256;16.402;2022-07-24T02:50:20;23.70;99.90
13310;DHT22;6723;48.256;16.402;2022-07-24T02:52:46;23.70;99.90
13310;DHT22;6723;48.256;16.402;2022-07-24T02:55:13;23.70;99.90
13310;DHT22;6723;48.256;16.402;2022-07-24T02:57:39;23.70;99.90
13310;DHT22;6723;48.256;16.402;2022-07-24T03:00:07;23.60;99.90
13310;DHT22;6723;48.256;16.402;2022-07-24T03:02:34;23.60;99.90
13310;DHT22;6723;48.256;16.402;2022-07-24T03:05:01;23.50;99.90
13310;DHT22;6723;48.256;16.402;2022-07-24T03:07:27;23.50;99.90
13310;DHT22;6723;48.256;16.402;2022-07-24T03:09:53;23.50;99.90
13310;DHT22;6723;48.256;16.402;2022-07-24T03:12:19;23.50;99.90
13310;DHT22;6723;48.256;16.402;2022-07-24T03:14:45;23.50;99.90
13310;DHT22;6723;48.256;16.402;2022-07-24T03:17:10;23.50;99.90
13310;DHT22;6723;48.256;16.402;2022-07-24T03:19:36;23.40;99.90
13310;DHT22;6723;48.256;16.402;2022-07-24T03:22:02;23.40;99.90
13310;DHT22;6723;48.256;16.402;2022-07-24T03:24:28;23.40;99.90
13310;DHT22;6723;48.256;16.402;2022-07-24T03:26:54;23.40;99.90
13310;DHT22;6723;48.256;16.402;2022-07-24T03:29:55;23.30;99.90
13310;DHT22;6723;48.256;16.402;2022-07-24T03:32:21;23.30;99.90
13310;DHT22;6723;48.256;16.402;2022-07-24T03:34:47;23.30;99.90
13310;DHT22;6723;48.256;16.402;2022-07-24T03:37:12;23.20;99.90
13310;DHT22;6723;48.256;16.402;2022-07-24T03:39:38;23.20;99.90
13310;DHT22;6723;48.256;16.402;2022-07-24T03:42:04;23.20;99.90
13310;DHT22;6723;48.256;16.402;2022-07-24T03:44:30;23.20;99.90
13310;DHT22;6723;48.256;16.402;2022-07-24T03:46:55;23.10;99.90
13310;DHT22;6723;48.256;16.402;2022-07-24T03:49:21;23.10;99.90
13310;DHT22;6723;48.256;16.402;2022-07-24T03:51:47;23.20;99.90
13310;DHT22;6723;48.256;16.402;2022-07-24T03:54:13;23.10;99.90
13310;DHT22;6723;48.256;16.402;2022-07-24T03:56:38;23.20;99.90
13310;DHT22;6723;48.256;16.402;2022-07-24T03:59:04;23.20;99.90
13310;DHT22;6723;48.256;16.402;2022-07-24T04:01:30;23.20;99.90
13310;DHT22;6723;48.256;16.402;2022-07-24T04:03:56;23.20;99.90
13310;DHT22;6723;48.256;16.402;2022-07-24T04:06:23;23.20;99.90
13310;DHT22;6723;48.256;16.402;2022-07-24T04:08:49;23.20;99.90
13310;DHT22;6723;48.256;16.402;2022-07-24T04:11:15;23.20;99.90
13310;DHT22;6723;48.256;16.402;2022-07-24T04:13:41;23.20;99.90
13310;DHT22;6723;48.256;16.402;2022-07-24T04:16:06;23.30;99.90
13310;DHT22;6723;48.256;16.402;2022-07-24T04:18:32;23.20;99.90
13310;DHT22;6723;48.256;16.402;2022-07-24T04:20:58;23.30;99.90
13310;DHT22;6723;48.256;16.402;2022-07-24T04:23:23;23.40;99.90
13310;DHT22;6723;48.256;16.402;2022-07-24T04:25:49;23.60;99.90
13310;DHT22;6723;48.256;16.402;2022-07-24T04:28:15;23.70;99.90
13310;DHT22;6723;48.256;16.402;2022-07-24T04:30:42;23.80;99.90
13310;DHT22;6723;48.256;16.402;2022-07-24T04:33:07;24.00;99.90
13310;DHT22;6723;48.256;16.402;2022-07-24T04:35:33;24.10;99.90
13310;DHT22;6723;48.256;16.402;2022-07-24T04:37:59;24.20;99.90
13310;DHT22;6723;48.256;16.402;2022-07-24T04:40:25;24.30;99.90
13310;DHT22;6723;48.256;16.402;2022-07-24T04:42:51;24.30;99.90
13310;DHT22;6723;48.256;16.402;2022-07-24T04:45:16;24.40;99.90
13310;DHT22;6723;48.256;16.402;2022-07-24T04:47:42;24.50;99.90
13310;DHT22;6723;48.256;16.402;2022-07-24T04:50:08;24.50;99.90
13310;DHT22;6723;48.256;16.402;2022-07-24T04:52:34;24.40;99.90
13310;DHT22;6723;48.256;16.402;2022-07-24T04:55:00;24.40;99.90
13310;DHT22;6723;48.256;16.402;2022-07-24T04:57:25;24.40;99.90
13310;DHT22;6723;48.256;16.402;2022-07-24T04:59:51;24.40;99.90
13310;DHT22;6723;48.256;16.402;2022-07-24T05:02:17;24.60;99.90
13310;DHT22;6723;48.256;16.402;2022-07-24T05:04:43;24.60;99.90
13310;DHT22;6723;48.256;16.402;2022-07-24T05:07:09;24.80;99.90
13310;DHT22;6723;48.256;16.402;2022-07-24T05:09:34;24.80;99.90
13310;DHT22;6723;48.256;16.402;2022-07-24T05:12:00;24.80;99.90
13310;DHT22;6723;48.256;16.402;2022-07-24T05:14:26;24.90;99.90
13310;DHT22;6723;48.256;16.402;2022-07-24T05:16:52;24.80;99.90
13310;DHT22;6723;48.256;16.402;2022-07-24T05:19:18;24.70;99.60
13310;DHT22;6723;48.256;16.402;2022-07-24T05:21:43;24.70;99.40
13310;DHT22;6723;48.256;16.402;2022-07-24T05:24:09;24.70;99.40
13310;DHT22;6723;48.256;16.402;2022-07-24T05:26:35;24.80;98.60
13310;DHT22;6723;48.256;16.402;2022-07-24T05:29:04;25.00;98.20
13310;DHT22;6723;48.256;16.402;2022-07-24T05:31:33;25.10;97.00
13310;DHT22;6723;48.256;16.402;2022-07-24T05:33:59;25.10;96.70
13310;DHT22;6723;48.256;16.402;2022-07-24T05:36:28;25.30;96.30
13310;DHT22;6723;48.256;16.402;2022-07-24T05:38:55;25.30;95.70
13310;DHT22;6723;48.256;16.402;2022-07-24T05:41:20;25.40;95.20
13310;DHT22;6723;48.256;16.402;2022-07-24T05:43:46;25.40;94.90
13310;DHT22;6723;48.256;16.402;2022-07-24T05:46:12;25.30;95.00
13310;DHT22;6723;48.256;16.402;2022-07-24T05:48:38;25.40;94.80
13310;DHT22;6723;48.256;16.402;2022-07-24T05:51:03;25.40;95.20
13310;DHT22;6723;48.256;16.402;2022-07-24T05:53:29;25.50;94.70
13310;DHT22;6723;48.256;16.402;2022-07-24T05:55:55;25.50;94.90
13310;DHT22;6723;48.256;16.402;2022-07-24T05:58:21;25.60;94.90
13310;DHT22;6723;48.256;16.402;2022-07-24T06:00:46;25.70;94.80
13310;DHT22;6723;48.256;16.402;2022-07-24T06:03:12;25.70;94.50
13310;DHT22;6723;48.256;16.402;2022-07-24T06:05:38;25.70;93.90
13310;DHT22;6723;48.256;16.402;2022-07-24T06:08:04;25.80;93.80
13310;DHT22;6723;48.256;16.402;2022-07-24T06:10:30;25.80;93.90
13310;DHT22;6723;48.256;16.402;2022-07-24T06:12:57;26.00;93.50
13310;DHT22;6723;48.256;16.402;2022-07-24T06:15:24;25.80;93.10
13310;DHT22;6723;48.256;16.402;2022-07-24T06:17:50;25.80;93.00
13310;DHT22;6723;48.256;16.402;2022-07-24T06:20:16;25.90;93.00
13310;DHT22;6723;48.256;16.402;2022-07-24T06:22:44;26.10;92.30
13310;DHT22;6723;48.256;16.402;2022-07-24T06:25:10;26.30;91.80
13310;DHT22;6723;48.256;16.402;2022-07-24T06:27:44;26.20;91.20
13310;DHT22;6723;48.256;16.402;2022-07-24T06:30:15;26.30;91.00
13310;DHT22;6723;48.256;16.402;2022-07-24T06:32:41;26.40;90.80
13310;DHT22;6723;48.256;16.402;2022-07-24T06:35:08;26.60;90.60
13310;DHT22;6723;48.256;16.402;2022-07-24T06:37:34;26.70;90.70
13310;DHT22;6723;48.256;16.402;2022-07-24T06:40:00;26.60;90.10
13310;DHT22;6723;48.256;16.402;2022-07-24T06:42:26;26.70;90.00
13310;DHT22;6723;48.256;16.402;2022-07-24T06:44:51;26.70;89.40
13310;DHT22;6723;48.256;16.402;2022-07-24T06:47:17;26.90;89.00
13310;DHT22;6723;48.256;16.402;2022-07-24T06:49:43;27.00;88.50
13310;DHT22;6723;48.256;16.402;2022-07-24T06:52:09;27.10;86.30
13310;DHT22;6723;48.256;16.402;2022-07-24T06:54:34;27.00;85.20
13310;DHT22;6723;48.256;16.402;2022-07-24T06:57:00;27.30;84.80
13310;DHT22;6723;48.256;16.402;2022-07-24T06:59:26;27.50;83.50
13310;DHT22;6723;48.256;16.402;2022-07-24T07:01:56;27.90;82.80
13310;DHT22;6723;48.256;16.402;2022-07-24T07:04:22;28.10;82.30
13310;DHT22;6723;48.256;16.402;2022-07-24T07:06:48;28.10;80.20
13310;DHT22;6723;48.256;16.402;2022-07-24T07:09:14;28.00;80.20
13310;DHT22;6723;48.256;16.402;2022-07-24T07:11:39;28.00;79.10
13310;DHT22;6723;48.256;16.402;2022-07-24T07:14:05;27.90;79.70
13310;DHT22;6723;48.256;16.402;2022-07-24T07:16:31;28.40;78.60
13310;DHT22;6723;48.256;16.402;2022-07-24T07:18:57;28.70;77.10
13310;DHT22;6723;48.256;16.402;2022-07-24T07:21:23;28.90;75.00
13310;DHT22;6723;48.256;16.402;2022-07-24T07:23:48;29.40;73.80
13310;DHT22;6723;48.256;16.402;2022-07-24T07:26:14;30.00;72.60
13310;DHT22;6723;48.256;16.402;2022-07-24T07:28:40;30.50;70.50
13310;DHT22;6723;48.256;16.402;2022-07-24T07:31:06;31.00;68.40
13310;DHT22;6723;48.256;16.402;2022-07-24T07:33:31;31.70;66.70
13310;DHT22;6723;48.256;16.402;2022-07-24T07:35:57;32.50;63.60
13310;DHT22;6723;48.256;16.402;2022-07-24T07:38:24;33.00;61.50
13310;DHT22;6723;48.256;16.402;2022-07-24T07:40:50;33.80;59.90
13310;DHT22;6723;48.256;16.402;2022-07-24T07:43:15;34.10;57.90
13310;DHT22;6723;48.256;16.402;2022-07-24T07:45:41;34.30;56.50
13310;DHT22;6723;48.256;16.402;2022-07-24T07:48:07;34.50;55.80
13310;DHT22;6723;48.256;16.402;2022-07-24T07:50:33;35.00;54.70
13310;DHT22;6723;48.256;16.402;2022-07-24T07:52:58;35.10;54.50
13310;DHT22;6723;48.256;16.402;2022-07-24T07:55:24;35.60;53.10
13310;DHT22;6723;48.256;16.402;2022-07-24T07:57:52;35.50;52.20
13310;DHT22;6723;48.256;16.402;2022-07-24T08:00:17;35.80;51.70
13310;DHT22;6723;48.256;16.402;2022-07-24T08:02:45;35.90;51.30
13310;DHT22;6723;48.256;16.402;2022-07-24T08:05:10;36.70;50.70
13310;DHT22;6723;48.256;16.402;2022-07-24T08:07:37;37.20;49.10
13310;DHT22;6723;48.256;16.402;2022-07-24T08:10:04;36.80;48.90
13310;DHT22;6723;48.256;16.402;2022-07-24T08:12:30;36.20;48.90
13310;DHT22;6723;48.256;16.402;2022-07-24T08:14:56;36.50;48.90
13310;DHT22;6723;48.256;16.402;2022-07-24T08:17:21;37.10;49.20
13310;DHT22;6723;48.256;16.402;2022-07-24T08:19:47;37.50;48.80
13310;DHT22;6723;48.256;16.402;2022-07-24T08:22:13;37.80;47.30
13310;DHT22;6723;48.256;16.402;2022-07-24T08:24:39;37.60;46.90
13310;DHT22;6723;48.256;16.402;2022-07-24T08:27:06;37.60;46.40
13310;DHT22;6723;48.256;16.402;2022-07-24T08:29:32;37.80;45.80
13310;DHT22;6723;48.256;16.402;2022-07-24T08:31:58;37.80;45.20
13310;DHT22;6723;48.256;16.402;2022-07-24T08:34:24;37.50;45.50
13310;DHT22;6723;48.256;16.402;2022-07-24T08:36:50;38.20;45.60
13310;DHT22;6723;48.256;16.402;2022-07-24T08:42:11;38.70;44.10
13310;DHT22;6723;48.256;16.402;2022-07-24T08:44:38;38.50;43.40
13310;DHT22;6723;48.256;16.402;2022-07-24T08:47:06;38.10;43.00
13310;DHT22;6723;48.256;16.402;2022-07-24T08:49:35;38.10;43.20
13310;DHT22;6723;48.256;16.402;2022-07-24T08:52:06;38.30;43.20
13310;DHT22;6723;48.256;16.402;2022-07-24T08:54:36;38.10;41.90
13310;DHT22;6723;48.256;16.402;2022-07-24T08:57:03;37.80;41.90
13310;DHT22;6723;48.256;16.402;2022-07-24T08:59:33;37.80;42.00
13310;DHT22;6723;48.256;16.402;2022-07-24T09:02:15;37.70;41.80
13310;DHT22;6723;48.256;16.402;2022-07-24T09:04:46;38.00;42.60
13310;DHT22;6723;48.256;16.402;2022-07-24T09:07:17;38.80;41.50
13310;DHT22;6723;48.256;16.402;2022-07-24T09:09:57;39.00;40.90
13310;DHT22;6723;48.256;16.402;2022-07-24T09:12:24;39.20;40.60
13310;DHT22;6723;48.256;16.402;2022-07-24T09:14:50;39.10;39.10
13310;DHT22;6723;48.256;16.402;2022-07-24T09:17:18;38.80;39.10
13310;DHT22;6723;48.256;16.402;2022-07-24T09:20:01;38.40;39.60
13310;DHT22;6723;48.256;16.402;2022-07-24T09:22:50;38.30;39.90
13310;DHT22;6723;48.256;16.402;2022-07-24T09:25:19;38.20;41.00
13310;DHT22;6723;48.256;16.402;2022-07-24T09:27:53;38.50;40.50
13310;DHT22;6723;48.256;16.402;2022-07-24T09:30:37;38.70;40.70
13310;DHT22;6723;48.256;16.402;2022-07-24T09:33:16;38.90;40.30
13310;DHT22;6723;48.256;16.402;2022-07-24T09:35:46;38.90;39.50
13310;DHT22;6723;48.256;16.402;2022-07-24T09:38:14;38.50;40.00
13310;DHT22;6723;48.256;16.402;2022-07-24T09:40:44;38.20;40.60
13310;DHT22;6723;48.256;16.402;2022-07-24T09:45:56;38.30;41.40
13310;DHT22;6723;48.256;16.402;2022-07-24T09:48:25;38.10;40.90
13310;DHT22;6723;48.256;16.402;2022-07-24T09:50:53;37.90;40.20
13310;DHT22;6723;48.256;16.402;2022-07-24T09:53:22;38.00;41.00
13310;DHT22;6723;48.256;16.402;2022-07-24T09:56:11;38.40;40.80
13310;DHT22;6723;48.256;16.402;2022-07-24T09:58:51;37.90;39.50
13310;DHT22;6723;48.256;16.402;2022-07-24T10:01:20;37.20;40.10
13310;DHT22;6723;48.256;16.402;2022-07-24T10:03:48;37.30;40.80
13310;DHT22;6723;48.256;16.402;2022-07-24T10:06:17;37.00;40.20
13310;DHT22;6723;48.256;16.402;2022-07-24T10:08:45;37.10;40.90
13310;DHT22;6723;48.256;16.402;2022-07-24T10:11:12;36.90;40.80
13310;DHT22;6723;48.256;16.402;2022-07-24T10:13:39;37.10;41.20
13310;DHT22;6723;48.256;16.402;2022-07-24T10:21:16;37.20;40.80
13310;DHT22;6723;48.256;16.402;2022-07-24T10:26:35;37.60;40.60
13310;DHT22;6723;48.256;16.402;2022-07-24T10:29:22;37.60;40.60
13310;DHT22;6723;48.256;16.402;2022-07-24T10:31:52;37.30;40.70
13310;DHT22;6723;48.256;16.402;2022-07-24T10:34:51;37.50;39.40
13310;DHT22;6723;48.256;16.402;2022-07-24T10:45:36;37.90;41.60
13310;DHT22;6723;48.256;16.402;2022-07-24T10:51:09;37.20;39.40
13310;DHT22;6723;48.256;16.402;2022-07-24T10:56:39;37.10;40.10
13310;DHT22;6723;48.256;16.402;2022-07-24T10:59:10;37.40;40.10
13310;DHT22;6723;48.256;16.402;2022-07-24T11:01:48;37.60;39.80
13310;DHT22;6723;48.256;16.402;2022-07-24T11:07:12;37.40;39.80
13310;DHT22;6723;48.256;16.402;2022-07-24T11:10:04;37.50;39.60
13310;DHT22;6723;48.256;16.402;2022-07-24T11:12:52;37.70;39.70
13310;DHT22;6723;48.256;16.402;2022-07-24T11:15:18;37.90;39.40
13310;DHT22;6723;48.256;16.402;2022-07-24T11:18:15;37.50;39.30
13310;DHT22;6723;48.256;16.402;2022-07-24T11:20:41;37.70;38.90
13310;DHT22;6723;48.256;16.402;2022-07-24T11:23:20;37.50;38.90
13310;DHT22;6723;48.256;16.402;2022-07-24T11:25:46;37.40;39.70
13310;DHT22;6723;48.256;16.402;2022-07-24T11:28:13;37.50;39.10
13310;DHT22;6723;48.256;16.402;2022-07-24T11:30:44;37.50;39.90
13310;DHT22;6723;48.256;16.402;2022-07-24T11:33:11;37.90;38.90
13310;DHT22;6723;48.256;16.402;2022-07-24T11:35:38;37.80;39.30
13310;DHT22;6723;48.256;16.402;2022-07-24T11:38:06;38.10;39.50
13310;DHT22;6723;48.256;16.402;2022-07-24T11:40:33;38.40;39.30
13310;DHT22;6723;48.256;16.402;2022-07-24T11:43:03;38.50;39.30
13310;DHT22;6723;48.256;16.402;2022-07-24T11:45:29;38.60;38.70
13310;DHT22;6723;48.256;16.402;2022-07-24T11:47:55;38.60;38.80
13310;DHT22;6723;48.256;16.402;2022-07-24T11:50:25;38.20;38.00
13310;DHT22;6723;48.256;16.402;2022-07-24T11:52:52;38.40;38.80
13310;DHT22;6723;48.256;16.402;2022-07-24T11:55:20;38.20;38.50
13310;DHT22;6723;48.256;16.402;2022-07-24T11:57:49;38.40;38.80
13310;DHT22;6723;48.256;16.402;2022-07-24T12:00:18;38.50;38.30
13310;DHT22;6723;48.256;16.402;2022-07-24T12:02:53;38.80;38.70
13310;DHT22;6723;48.256;16.402;2022-07-24T12:05:31;39.00;39.00
13310;DHT22;6723;48.256;16.402;2022-07-24T12:08:00;38.70;38.00
13310;DHT22;6723;48.256;16.402;2022-07-24T12:10:27;38.40;38.00
13310;DHT22;6723;48.256;16.402;2022-07-24T12:12:55;38.20;38.20
13310;DHT22;6723;48.256;16.402;2022-07-24T12:15:24;38.20;39.20
13310;DHT22;6723;48.256;16.402;2022-07-24T12:23:01;37.80;38.70
13310;DHT22;6723;48.256;16.402;2022-07-24T12:25:28;37.90;38.70
13310;DHT22;6723;48.256;16.402;2022-07-24T12:28:15;37.70;39.50
13310;DHT22;6723;48.256;16.402;2022-07-24T12:30:47;37.60;39.20
13310;DHT22;6723;48.256;16.402;2022-07-24T12:33:27;37.40;39.10
13310;DHT22;6723;48.256;16.402;2022-07-24T12:36:11;36.90;39.50
13310;DHT22;6723;48.256;16.402;2022-07-24T12:38:53;37.10;40.60
13310;DHT22;6723;48.256;16.402;2022-07-24T12:41:24;37.00;40.10
13310;DHT22;6723;48.256;16.402;2022-07-24T12:44:00;36.50;39.60
13310;DHT22;6723;48.256;16.402;2022-07-24T12:46:44;36.30;40.40
13310;DHT22;6723;48.256;16.402;2022-07-24T12:49:12;36.40;41.10
13310;DHT22;6723;48.256;16.402;2022-07-24T12:51:56;36.10;40.70
13310;DHT22;6723;48.256;16.402;2022-07-24T12:54:32;36.10;41.40
13310;DHT22;6723;48.256;16.402;2022-07-24T12:57:09;36.10;40.80
13310;DHT22;6723;48.256;16.402;2022-07-24T12:59:46;36.20;41.40
13310;DHT22;6723;48.256;16.402;2022-07-24T13:02:16;36.40;41.20
13310;DHT22;6723;48.256;16.402;2022-07-24T13:04:50;36.30;40.60
13310;DHT22;6723;48.256;16.402;2022-07-24T13:07:20;36.20;40.70
13310;DHT22;6723;48.256;16.402;2022-07-24T13:09:46;36.30;41.00
13310;DHT22;6723;48.256;16.402;2022-07-24T13:12:13;36.40;41.10
13310;DHT22;6723;48.256;16.402;2022-07-24T13:14:39;36.50;41.10
13310;DHT22;6723;48.256;16.402;2022-07-24T13:17:09;36.80;41.20
13310;DHT22;6723;48.256;16.402;2022-07-24T13:19:40;36.70;41.30
13310;DHT22;6723;48.256;16.402;2022-07-24T13:22:06;36.70;41.00
13310;DHT22;6723;48.256;16.402;2022-07-24T13:24:32;36.40;41.00
13310;DHT22;6723;48.256;16.402;2022-07-24T13:27:04;36.70;41.00
13310;DHT22;6723;48.256;16.402;2022-07-24T13:29:30;36.50;41.00
13310;DHT22;6723;48.256;16.402;2022-07-24T13:31:57;35.90;40.70
13310;DHT22;6723;48.256;16.402;2022-07-24T13:34:23;36.00;41.40
13310;DHT22;6723;48.256;16.402;2022-07-24T13:36:49;36.00;41.20
13310;DHT22;6723;48.256;16.402;2022-07-24T13:39:16;35.60;41.30
13310;DHT22;6723;48.256;16.402;2022-07-24T13:41:42;35.90;42.70
13310;DHT22;6723;48.256;16.402;2022-07-24T13:44:08;35.70;41.60
13310;DHT22;6723;48.256;16.402;2022-07-24T13:46:34;35.80;41.50
13310;DHT22;6723;48.256;16.402;2022-07-24T13:49:03;35.90;42.10
13310;DHT22;6723;48.256;16.402;2022-07-24T13:51:30;35.60;41.50
13310;DHT22;6723;48.256;16.402;2022-07-24T13:53:56;35.70;41.10
13310;DHT22;6723;48.256;16.402;2022-07-24T13:56:22;35.60;41.50
13310;DHT22;6723;48.256;16.402;2022-07-24T13:58:48;35.80;42.10
13310;DHT22;6723;48.256;16.402;2022-07-24T14:01:14;35.70;41.60
13310;DHT22;6723;48.256;16.402;2022-07-24T14:03:42;35.70;42.10
13310;DHT22;6723;48.256;16.402;2022-07-24T14:06:09;35.80;41.30
13310;DHT22;6723;48.256;16.402;2022-07-24T14:08:36;35.80;41.50
13310;DHT22;6723;48.256;16.402;2022-07-24T14:11:06;35.50;41.70
13310;DHT22;6723;48.256;16.402;2022-07-24T14:14:06;35.50;41.60
13310;DHT22;6723;48.256;16.402;2022-07-24T14:16:32;35.40;41.60
13310;DHT22;6723;48.256;16.402;2022-07-24T14:18:59;35.50;42.40
13310;DHT22;6723;48.256;16.402;2022-07-24T14:21:25;35.10;41.60
13310;DHT22;6723;48.256;16.402;2022-07-24T14:23:51;35.10;41.70
13310;DHT22;6723;48.256;16.402;2022-07-24T14:26:17;35.30;41.50
13310;DHT22;6723;48.256;16.402;2022-07-24T14:28:43;35.30;41.20
13310;DHT22;6723;48.256;16.402;2022-07-24T14:31:08;35.20;41.20
13310;DHT22;6723;48.256;16.402;2022-07-24T14:33:45;35.10;41.90
13310;DHT22;6723;48.256;16.402;2022-07-24T14:36:11;35.00;41.30
13310;DHT22;6723;48.256;16.402;2022-07-24T14:38:37;35.10;41.50
13310;DHT22;6723;48.256;16.402;2022-07-24T14:41:02;34.90;41.30
13310;DHT22;6723;48.256;16.402;2022-07-24T14:43:28;34.80;41.40
13310;DHT22;6723;48.256;16.402;2022-07-24T14:45:54;34.80;41.60
13310;DHT22;6723;48.256;16.402;2022-07-24T14:48:42;34.60;42.00
13310;DHT22;6723;48.256;16.402;2022-07-24T14:51:08;34.60;42.20
13310;DHT22;6723;48.256;16.402;2022-07-24T14:53:33;34.50;42.10
13310;DHT22;6723;48.256;16.402;2022-07-24T14:55:59;34.60;42.40
13310;DHT22;6723;48.256;16.402;2022-07-24T14:58:25;34.50;42.10
13310;DHT22;6723;48.256;16.402;2022-07-24T15:00:50;34.30;42.40
13310;DHT22;6723;48.256;16.402;2022-07-24T15:03:16;34.40;42.40
13310;DHT22;6723;48.256;16.402;2022-07-24T15:05:49;34.40;42.70
13310;DHT22;6723;48.256;16.402;2022-07-24T15:08:15;34.40;42.90
13310;DHT22;6723;48.256;16.402;2022-07-24T15:10:40;34.30;42.50
13310;DHT22;6723;48.256;16.402;2022-07-24T15:13:06;34.30;42.60
13310;DHT22;6723;48.256;16.402;2022-07-24T15:15:32;34.10;42.90
13310;DHT22;6723;48.256;16.402;2022-07-24T15:17:58;34.00;42.30
13310;DHT22;6723;48.256;16.402;2022-07-24T15:20:24;33.80;42.90
13310;DHT22;6723;48.256;16.402;2022-07-24T15:22:49;33.80;42.70
13310;DHT22;6723;48.256;16.402;2022-07-24T15:25:15;33.80;42.90
13310;DHT22;6723;48.256;16.402;2022-07-24T15:27:41;33.80;42.90
13310;DHT22;6723;48.256;16.402;2022-07-24T15:30:07;33.70;42.90
13310;DHT22;6723;48.256;16.402;2022-07-24T15:32:35;33.50;43.10
13310;DHT22;6723;48.256;16.402;2022-07-24T15:35:01;33.60;43.20
13310;DHT22;6723;48.256;16.402;2022-07-24T15:37:28;33.50;43.10
13310;DHT22;6723;48.256;16.402;2022-07-24T15:39:55;33.50;43.50
13310;DHT22;6723;48.256;16.402;2022-07-24T15:42:20;33.50;43.50
13310;DHT22;6723;48.256;16.402;2022-07-24T15:44:46;33.50;43.50
13310;DHT22;6723;48.256;16.402;2022-07-24T15:47:12;33.50;43.50
13310;DHT22;6723;48.256;16.402;2022-07-24T15:49:37;33.60;43.60
13310;DHT22;6723;48.256;16.402;2022-07-24T15:52:03;33.50;44.40
13310;DHT22;6723;48.256;16.402;2022-07-24T15:54:29;33.50;43.60
13310;DHT22;6723;48.256;16.402;2022-07-24T15:56:55;33.50;43.90
13310;DHT22;6723;48.256;16.402;2022-07-24T15:59:21;33.30;43.80
13310;DHT22;6723;48.256;16.402;2022-07-24T16:04:58;33.20;44.10
13310;DHT22;6723;48.256;16.402;2022-07-24T16:07:24;33.00;44.00
13310;DHT22;6723;48.256;16.402;2022-07-24T16:09:50;33.00;43.60
13310;DHT22;6723;48.256;16.402;2022-07-24T16:12:16;33.00;43.80
13310;DHT22;6723;48.256;16.402;2022-07-24T16:14:42;33.00;44.10